createdAt,value
2023-01-17T00:00:00.449Z,58.14
2023-01-17T00:02:31.052Z,58.68
2023-01-17T00:05:18.160Z,57.58
2023-01-17T00:08:05.492Z,57.80
2023-01-17T00:10:34.253Z,57.52
2023-01-17T00:13:03.562Z,56.44
2023-01-17T00:15:32.397Z,55.88
2023-01-17T00:18:00.847Z,57.02
2023-01-17T00:20:49.445Z,58.46
2023-01-17T00:23:44.469Z,56.75
2023-01-17T00:26:16.814Z,57.06
2023-01-17T00:28:46.289Z,56.92
2023-01-17T00:31:16.468Z,55.47
2023-01-17T00:33:44.899Z,56.08
2023-01-17T00:36:13.602Z,56.47
2023-01-17T00:38:42.064Z,57.33
2023-01-17T00:41:13.008Z,55.92
2023-01-17T00:44:00.279Z,55.45
2023-01-17T00:46:47.348Z,55.63
2023-01-17T00:49:34.559Z,56.67
2023-01-17T00:52:21.426Z,54.23
2023-01-17T00:55:08.317Z,54.80
2023-01-17T00:57:55.170Z,54.46
2023-01-17T01:00:42.019Z,54.55
2023-01-17T01:03:29.890Z,57.18
2023-01-17T01:06:17.497Z,56.06
2023-01-17T01:09:04.453Z,55.58
2023-01-17T01:11:51.290Z,55.91
2023-01-17T01:14:38.331Z,55.94
2023-01-17T01:17:25.537Z,57.08
2023-01-17T01:20:12.550Z,55.21
2023-01-17T01:22:59.458Z,55.20
2023-01-17T01:25:46.472Z,54.84
2023-01-17T01:28:34.433Z,54.39
2023-01-17T01:31:22.301Z,54.87
2023-01-17T01:33:51.754Z,53.87
2023-01-17T01:36:20.571Z,53.87
2023-01-17T01:38:50.299Z,54.43
2023-01-17T01:41:18.791Z,54.32
2023-01-17T01:43:52.535Z,53.48
2023-01-17T01:46:36.664Z,54.39
2023-01-17T01:49:17.293Z,53.43
2023-01-17T01:51:53.010Z,52.68
2023-01-17T01:54:25.489Z,53.09
2023-01-17T01:56:57.182Z,52.51
2023-01-17T01:59:26.332Z,52.46
2023-01-17T02:01:56.137Z,54.10
2023-01-17T02:04:27.559Z,53.14
2023-01-17T02:07:03.043Z,52.94
2023-01-17T02:09:31.724Z,52.32
2023-01-17T02:12:00.389Z,51.84
2023-01-17T02:14:28.975Z,51.90
2023-01-17T02:17:03.862Z,51.44
2023-01-17T02:20:17.640Z,51.38
2023-01-17T02:22:49.266Z,51.84
2023-01-17T02:25:32.935Z,52.48
2023-01-17T02:28:39.232Z,53.25
2023-01-17T02:31:17.720Z,53.38
2023-01-17T02:33:59.834Z,53.91
2023-01-17T02:36:45.570Z,54.87
2023-01-17T02:39:19.821Z,56.34
2023-01-17T02:41:54.465Z,57.14
2023-01-17T02:44:23.944Z,58.58
2023-01-17T02:46:57.064Z,56.20
2023-01-17T02:49:30.406Z,57.04
2023-01-17T02:52:37.287Z,54.47
2023-01-17T02:55:41.058Z,53.37
2023-01-17T02:58:19.369Z,52.23
2023-01-17T03:00:58.988Z,52.64
2023-01-17T03:03:49.515Z,52.33
2023-01-17T03:06:32.331Z,52.36
2023-01-17T03:09:02.387Z,52.36
2023-01-17T03:11:30.879Z,52.01
2023-01-17T03:13:59.347Z,51.67
2023-01-17T03:16:30.907Z,51.54
2023-01-17T03:18:59.588Z,51.45
2023-01-17T03:21:27.996Z,51.97
2023-01-17T03:23:56.582Z,51.77
2023-01-17T03:26:25.048Z,51.56
2023-01-17T03:28:53.532Z,51.03
2023-01-17T03:31:21.892Z,51.00
2023-01-17T03:33:50.501Z,51.06
2023-01-17T03:36:20.233Z,51.12
2023-01-17T03:38:49.709Z,51.73
2023-01-17T03:41:18.202Z,51.55
2023-01-17T03:43:46.655Z,51.55
2023-01-17T03:46:23.820Z,51.95
2023-01-17T03:48:52.690Z,51.85
2023-01-17T03:51:21.447Z,51.67
2023-01-17T03:53:50.746Z,52.56
2023-01-17T03:56:19.782Z,52.07
2023-01-17T03:58:48.249Z,51.78
2023-01-17T04:01:16.773Z,51.88
2023-01-17T04:03:45.325Z,51.65
2023-01-17T04:06:13.712Z,51.37
2023-01-17T04:08:42.091Z,51.45
2023-01-17T04:11:10.596Z,51.13
2023-01-17T04:13:38.988Z,51.64
2023-01-17T04:16:13.137Z,51.80
2023-01-17T04:18:41.798Z,51.56
2023-01-17T04:21:10.285Z,51.26
2023-01-17T04:23:38.771Z,51.58
2023-01-17T04:26:07.184Z,51.84
2023-01-17T04:28:35.591Z,51.77
2023-01-17T04:31:05.586Z,51.43
2023-01-17T04:33:34.035Z,51.30
2023-01-17T04:36:02.473Z,51.19
2023-01-17T04:38:30.930Z,51.34
2023-01-17T04:40:59.379Z,50.94
2023-01-17T04:43:27.827Z,50.66
2023-01-17T04:45:57.587Z,51.06
2023-01-17T04:48:27.210Z,51.07
2023-01-17T04:51:03.284Z,51.01
2023-01-17T04:53:32.077Z,51.57
2023-01-17T04:56:00.533Z,51.78
2023-01-17T04:58:29.440Z,51.96
2023-01-17T05:01:04.552Z,52.10
2023-01-17T05:03:34.240Z,52.37
2023-01-17T05:06:03.231Z,52.08
2023-01-17T05:08:31.633Z,52.08
2023-01-17T05:11:00.021Z,52.90
2023-01-17T05:13:28.510Z,52.20
2023-01-17T05:15:58.333Z,51.69
2023-01-17T05:18:26.846Z,52.74
2023-01-17T05:21:01.684Z,52.61
2023-01-17T05:23:30.187Z,52.61
2023-01-17T05:25:58.711Z,53.36
2023-01-17T05:28:27.213Z,52.62
2023-01-17T05:30:55.688Z,52.01
2023-01-17T05:33:24.144Z,51.92
2023-01-17T05:35:52.792Z,51.99
2023-01-17T05:38:22.553Z,51.81
2023-01-17T05:40:51.060Z,51.39
2023-01-17T05:43:20.335Z,51.43
2023-01-17T05:45:50.503Z,51.64
2023-01-17T05:48:18.936Z,51.51
2023-01-17T05:50:47.449Z,51.85
2023-01-17T05:53:16.789Z,51.54
2023-01-17T05:55:45.518Z,52.29
2023-01-17T05:58:16.954Z,52.15
2023-01-17T06:00:45.791Z,52.00
2023-01-17T06:03:14.781Z,51.80
2023-01-17T06:05:45.294Z,51.59
2023-01-17T06:08:13.790Z,51.22
2023-01-17T06:10:42.309Z,51.30
2023-01-17T06:13:14.315Z,51.43
2023-01-17T06:15:42.779Z,51.24
2023-01-17T06:18:13.466Z,51.34
2023-01-17T06:20:42.586Z,51.06
2023-01-17T06:23:13.350Z,51.63
2023-01-17T06:25:44.181Z,51.90
2023-01-17T06:28:14.919Z,51.77
2023-01-17T06:30:44.017Z,51.49
2023-01-17T06:33:12.931Z,51.70
2023-01-17T06:35:48.426Z,52.10
2023-01-17T06:38:16.982Z,51.75
2023-01-17T06:40:45.549Z,51.42
2023-01-17T06:43:14.020Z,51.79
2023-01-17T06:45:42.414Z,51.42
2023-01-17T06:48:11.081Z,50.97
2023-01-17T06:50:39.722Z,51.07
2023-01-17T06:53:08.305Z,51.35
2023-01-17T06:55:40.165Z,51.47
2023-01-17T06:58:08.803Z,51.55
2023-01-17T07:00:39.581Z,50.98
2023-01-17T07:03:19.023Z,50.84
2023-01-17T07:05:48.218Z,50.68
2023-01-17T07:08:18.003Z,50.95
2023-01-17T07:10:47.580Z,51.00
2023-01-17T07:13:16.462Z,50.94
2023-01-17T07:15:44.890Z,50.91
2023-01-17T07:18:13.387Z,50.86
2023-01-17T07:20:43.809Z,50.92
2023-01-17T07:23:13.059Z,51.20
2023-01-17T07:25:41.696Z,51.00
2023-01-17T07:28:10.163Z,50.83
2023-01-17T07:30:38.658Z,51.04
2023-01-17T07:33:07.173Z,50.94
2023-01-17T07:35:36.980Z,50.85
2023-01-17T07:38:05.831Z,50.64
2023-01-17T07:40:41.845Z,50.59
2023-01-17T07:43:14.175Z,50.99
2023-01-17T07:45:43.987Z,50.81
2023-01-17T07:48:12.855Z,51.21
2023-01-17T07:50:41.353Z,51.07
2023-01-17T07:53:10.549Z,50.71
2023-01-17T07:55:40.137Z,50.75
2023-01-17T07:58:09.449Z,50.75
2023-01-17T08:00:37.980Z,51.26
2023-01-17T08:03:06.395Z,51.45
2023-01-17T08:05:34.793Z,51.25
2023-01-17T08:08:03.492Z,51.31
2023-01-17T08:10:31.897Z,51.47
2023-01-17T08:13:00.263Z,51.73
2023-01-17T08:15:28.864Z,51.48
2023-01-17T08:17:58.598Z,51.54
2023-01-17T08:20:28.116Z,51.69
2023-01-17T08:22:57.144Z,51.17
2023-01-17T08:25:26.824Z,51.53
2023-01-17T08:27:58.214Z,51.79
2023-01-17T08:30:26.920Z,51.58
2023-01-17T08:32:55.780Z,51.28
2023-01-17T08:35:24.219Z,51.11
2023-01-17T08:37:55.027Z,50.90
2023-01-17T08:40:24.379Z,51.02
2023-01-17T08:42:58.059Z,50.89
2023-01-17T08:45:27.530Z,50.98
2023-01-17T08:47:57.655Z,50.51
2023-01-17T08:50:26.920Z,50.80
2023-01-17T08:53:01.088Z,50.64
2023-01-17T08:55:29.832Z,50.65
2023-01-17T08:57:58.409Z,50.63
2023-01-17T09:00:28.543Z,50.73
2023-01-17T09:02:57.031Z,50.76
2023-01-17T09:05:25.710Z,50.54
2023-01-17T09:07:56.653Z,50.56
2023-01-17T09:10:25.264Z,50.56
2023-01-17T09:12:53.789Z,50.36
2023-01-17T09:15:22.461Z,49.98
2023-01-17T09:17:51.037Z,50.24
2023-01-17T09:20:19.794Z,50.47
2023-01-17T09:22:48.242Z,50.04
2023-01-17T09:25:16.901Z,49.87
2023-01-17T09:27:46.916Z,50.19
2023-01-17T09:30:15.938Z,49.61
2023-01-17T09:32:44.497Z,49.99
2023-01-17T09:35:13.677Z,49.85
2023-01-17T09:37:42.087Z,49.46
2023-01-17T09:40:24.497Z,49.54
2023-01-17T09:42:55.360Z,48.55
2023-01-17T09:45:27.979Z,49.27
2023-01-17T09:47:57.876Z,49.05
2023-01-17T09:50:52.294Z,49.18
2023-01-17T09:53:21.498Z,49.49
2023-01-17T09:56:05.925Z,49.00
2023-01-17T09:59:00.309Z,48.77
2023-01-17T10:01:54.103Z,48.68
2023-01-17T10:04:58.071Z,47.77
2023-01-17T10:07:44.978Z,48.15
2023-01-17T10:10:19.883Z,48.33
2023-01-17T10:12:57.507Z,47.77
2023-01-17T10:15:39.094Z,47.98
2023-01-17T10:18:32.876Z,47.75
2023-01-17T10:21:19.418Z,46.97
2023-01-17T10:24:23.258Z,47.61
2023-01-17T10:26:56.296Z,45.99
2023-01-17T10:29:30.473Z,45.86
2023-01-17T10:32:00.509Z,47.58
2023-01-17T10:35:01.375Z,46.21
2023-01-17T10:37:43.311Z,46.52
2023-01-17T10:40:24.662Z,46.09
2023-01-17T10:43:12.560Z,46.75
2023-01-17T10:45:48.822Z,46.13
2023-01-17T10:48:39.625Z,46.42
2023-01-17T10:51:15.934Z,46.77
2023-01-17T10:54:07.320Z,46.22
2023-01-17T10:56:39.518Z,46.64
2023-01-17T10:59:18.996Z,46.51
2023-01-17T11:01:48.706Z,46.68
2023-01-17T11:04:21.924Z,46.95
2023-01-17T11:07:12.061Z,46.56
2023-01-17T11:09:49.789Z,46.42
2023-01-17T11:12:38.274Z,46.83
2023-01-17T11:15:09.857Z,45.62
2023-01-17T11:17:52.993Z,46.30
2023-01-17T11:20:38.530Z,47.05
2023-01-17T11:23:31.621Z,46.61
2023-01-17T11:26:07.583Z,44.95
2023-01-17T11:28:38.731Z,44.29
2023-01-17T11:31:16.526Z,43.94
2023-01-17T11:34:06.405Z,42.25
2023-01-17T11:36:35.184Z,42.42
2023-01-17T11:39:16.878Z,42.77
2023-01-17T11:41:52.240Z,42.63
2023-01-17T11:44:23.681Z,43.89
2023-01-17T11:47:08.453Z,41.77
2023-01-17T11:49:37.073Z,41.74
2023-01-17T11:52:33.825Z,41.77
2023-01-17T11:55:02.372Z,41.60
2023-01-17T11:57:35.122Z,41.49
2023-01-17T12:00:30.629Z,40.51
2023-01-17T12:03:30.113Z,42.38
2023-01-17T12:06:20.423Z,40.53
2023-01-17T12:08:51.302Z,39.11
2023-01-17T12:12:05.494Z,39.55
2023-01-17T12:15:03.454Z,40.19
2023-01-17T12:17:53.416Z,38.00
2023-01-17T12:20:34.321Z,39.78
2023-01-17T12:23:24.644Z,39.33
2023-01-17T12:26:19.679Z,38.80
2023-01-17T12:29:00.125Z,38.84
2023-01-17T12:31:34.489Z,38.85
2023-01-17T12:34:31.908Z,38.57
2023-01-17T12:37:18.648Z,39.72
2023-01-17T12:40:15.057Z,40.38
2023-01-17T12:43:06.093Z,40.74
2023-01-17T12:45:46.927Z,41.41
2023-01-17T12:48:21.584Z,41.04
2023-01-17T12:51:00.135Z,38.98
2023-01-17T12:53:52.134Z,40.54
2023-01-17T12:56:24.350Z,40.22
2023-01-17T12:58:56.095Z,38.17
2023-01-17T13:01:39.627Z,39.48
2023-01-17T13:04:42.002Z,40.06
2023-01-17T13:07:26.082Z,40.35
2023-01-17T13:10:02.636Z,40.42
2023-01-17T13:12:33.297Z,40.27
2023-01-17T13:15:03.945Z,40.04
2023-01-17T13:17:48.171Z,38.96
2023-01-17T13:20:32.283Z,41.12
2023-01-17T13:23:12.478Z,41.15
2023-01-17T13:25:50.167Z,40.99
2023-01-17T13:28:55.027Z,39.93
2023-01-17T13:31:45.282Z,39.33
2023-01-17T13:34:28.946Z,39.17
2023-01-17T13:37:00.385Z,38.74
2023-01-17T13:39:33.127Z,38.73
2023-01-17T13:42:10.909Z,38.56
2023-01-17T13:44:39.348Z,39.14
2023-01-17T13:47:11.301Z,37.85
2023-01-17T13:49:51.511Z,38.89
2023-01-17T13:52:19.903Z,40.16
2023-01-17T13:54:49.481Z,39.99
2023-01-17T13:57:29.831Z,39.39
2023-01-17T14:00:28.001Z,37.22
2023-01-17T14:02:56.469Z,36.88
2023-01-17T14:05:31.068Z,36.97
2023-01-17T14:08:04.002Z,37.13
2023-01-17T14:10:38.944Z,37.32
2023-01-17T14:13:39.618Z,37.02
2023-01-17T14:16:26.964Z,36.76
2023-01-17T14:18:55.906Z,37.82
2023-01-17T14:21:28.965Z,39.07
2023-01-17T14:24:15.872Z,37.07
2023-01-17T14:26:59.005Z,37.73
2023-01-17T14:29:42.736Z,37.80
2023-01-17T14:32:18.550Z,37.70
2023-01-17T14:34:50.230Z,37.85
2023-01-17T14:37:40.515Z,39.08
2023-01-17T14:40:27.341Z,37.42
2023-01-17T14:43:02.184Z,37.58
2023-01-17T14:45:34.379Z,38.45
2023-01-17T14:48:04.450Z,37.94
2023-01-17T14:50:39.369Z,37.86
2023-01-17T14:53:16.221Z,37.52
2023-01-17T14:55:47.915Z,37.95
2023-01-17T14:58:21.570Z,37.97
2023-01-17T15:00:54.555Z,37.87
2023-01-17T15:03:23.311Z,37.25
2023-01-17T15:05:54.451Z,39.77
2023-01-17T15:08:29.000Z,37.85
2023-01-17T15:11:05.376Z,37.91
2023-01-17T15:13:45.245Z,37.83
2023-01-17T15:16:33.282Z,38.99
2023-01-17T15:19:02.781Z,38.77
2023-01-17T15:21:42.340Z,38.54
2023-01-17T15:24:20.495Z,38.65
2023-01-17T15:26:49.281Z,38.51
2023-01-17T15:29:26.165Z,38.26
2023-01-17T15:32:00.528Z,38.39
2023-01-17T15:34:32.420Z,38.35
2023-01-17T15:37:03.807Z,38.60
2023-01-17T15:39:39.254Z,38.03
2023-01-17T15:42:22.330Z,38.34
2023-01-17T15:44:56.592Z,38.54
2023-01-17T15:47:30.536Z,38.37
2023-01-17T15:50:01.032Z,39.10
2023-01-17T15:52:29.612Z,39.01
2023-01-17T15:55:14.530Z,38.91
2023-01-17T15:57:47.488Z,39.85
2023-01-17T16:00:24.091Z,39.74
2023-01-17T16:02:58.745Z,40.43
2023-01-17T16:05:33.907Z,39.56
2023-01-17T16:08:02.501Z,39.53
2023-01-17T16:10:35.600Z,39.65
2023-01-17T16:13:06.682Z,40.04
2023-01-17T16:15:36.689Z,39.81
2023-01-17T16:18:11.793Z,40.50
2023-01-17T16:20:46.522Z,40.67
2023-01-17T16:23:15.675Z,40.70
2023-01-17T16:25:44.544Z,40.89
2023-01-17T16:28:13.114Z,41.44
2023-01-17T16:30:41.836Z,41.49
2023-01-17T16:33:12.921Z,41.74
2023-01-17T16:35:42.953Z,41.66
2023-01-17T16:38:15.512Z,41.15
2023-01-17T16:40:45.323Z,41.27
2023-01-17T16:43:15.176Z,41.78
2023-01-17T16:45:46.308Z,41.59
2023-01-17T16:48:16.638Z,41.56
2023-01-17T16:50:50.414Z,41.81
2023-01-17T16:53:24.471Z,41.94
2023-01-17T16:56:00.148Z,42.11
2023-01-17T16:58:28.727Z,41.99
2023-01-17T17:00:57.618Z,42.21
2023-01-17T17:03:26.501Z,42.09
2023-01-17T17:06:00.352Z,42.03
2023-01-17T17:08:29.378Z,42.25
2023-01-17T17:11:19.253Z,42.27
2023-01-17T17:13:49.693Z,42.32
2023-01-17T17:16:29.698Z,42.43
2023-01-17T17:19:01.055Z,42.34
2023-01-17T17:21:31.710Z,42.28
2023-01-17T17:24:01.218Z,42.79
2023-01-17T17:26:34.347Z,42.98
2023-01-17T17:29:04.216Z,42.86
2023-01-17T17:31:33.140Z,42.84
2023-01-17T17:34:03.562Z,43.03
2023-01-17T17:36:32.108Z,42.94
2023-01-17T17:39:03.419Z,43.07
2023-01-17T17:41:40.339Z,43.09
2023-01-17T17:44:08.882Z,43.08
2023-01-17T17:46:37.761Z,43.15
2023-01-17T17:49:06.763Z,43.36
2023-01-17T17:51:38.403Z,44.35
2023-01-17T17:54:10.251Z,44.42
2023-01-17T17:56:39.698Z,44.29
2023-01-17T17:59:09.594Z,44.16
2023-01-17T18:01:38.281Z,44.37
2023-01-17T18:04:08.169Z,44.72
2023-01-17T18:06:38.612Z,44.74
2023-01-17T18:09:08.606Z,44.89
2023-01-17T18:11:40.425Z,45.11
2023-01-17T18:14:12.967Z,45.92
2023-01-17T18:16:43.628Z,45.84
2023-01-17T18:19:21.563Z,45.98
2023-01-17T18:21:51.394Z,45.56
2023-01-17T18:24:22.348Z,45.00
2023-01-17T18:26:57.059Z,45.13
2023-01-17T18:29:27.215Z,44.59
2023-01-17T18:31:56.041Z,44.78
2023-01-17T18:34:29.151Z,44.60
2023-01-17T18:36:57.964Z,44.24
2023-01-17T18:39:29.081Z,44.47
2023-01-17T18:41:58.392Z,44.26
2023-01-17T18:44:27.578Z,44.89
2023-01-17T18:47:01.833Z,44.91
2023-01-17T18:49:32.473Z,44.56
2023-01-17T18:52:01.207Z,44.24
2023-01-17T18:54:34.822Z,44.62
2023-01-17T18:57:03.332Z,44.79
2023-01-17T18:59:31.750Z,44.67
2023-01-17T19:02:00.346Z,44.44
2023-01-17T19:04:29.624Z,44.35
2023-01-17T19:06:58.087Z,44.42
2023-01-17T19:09:26.766Z,44.53
2023-01-17T19:11:55.279Z,44.69
2023-01-17T19:14:23.823Z,44.52
2023-01-17T19:16:52.405Z,44.83
2023-01-17T19:19:20.892Z,45.03
2023-01-17T19:21:52.684Z,45.45
2023-01-17T19:24:21.120Z,45.12
2023-01-17T19:26:52.872Z,44.94
2023-01-17T19:29:22.594Z,45.09
2023-01-17T19:31:51.140Z,44.91
2023-01-17T19:34:20.269Z,44.66
2023-01-17T19:36:48.769Z,44.65
2023-01-17T19:39:17.197Z,44.54
2023-01-17T19:41:45.852Z,44.32
2023-01-17T19:44:14.919Z,44.44
2023-01-17T19:46:45.365Z,44.58
2023-01-17T19:49:16.271Z,44.62
2023-01-17T19:51:44.807Z,44.61
2023-01-17T19:54:15.168Z,44.79
2023-01-17T19:56:43.650Z,44.52
2023-01-17T19:59:13.963Z,44.52
2023-01-17T20:01:42.518Z,44.67
2023-01-17T20:04:12.761Z,44.51
2023-01-17T20:06:41.314Z,45.08
2023-01-17T20:09:09.948Z,44.97
2023-01-17T20:11:42.125Z,44.89
2023-01-17T20:14:13.291Z,44.43
2023-01-17T20:16:43.404Z,44.82
2023-01-17T20:19:11.829Z,44.49
2023-01-17T20:21:40.301Z,44.32
2023-01-17T20:24:10.588Z,44.53
2023-01-17T20:26:40.145Z,44.72
2023-01-17T20:29:15.759Z,44.77
2023-01-17T20:31:45.253Z,45.23
2023-01-17T20:34:14.360Z,45.13
2023-01-17T20:36:42.823Z,44.91
2023-01-17T20:39:13.951Z,44.78
2023-01-17T20:41:44.650Z,44.77
2023-01-17T20:44:15.355Z,44.72
2023-01-17T20:46:44.086Z,44.61
2023-01-17T20:49:15.780Z,44.84
2023-01-17T20:51:45.537Z,44.77
2023-01-17T20:54:17.741Z,44.68
2023-01-17T20:56:49.965Z,44.90
2023-01-17T20:59:21.489Z,45.07
2023-01-17T21:01:50.615Z,45.02
2023-01-17T21:04:25.500Z,44.97
2023-01-17T21:06:54.596Z,44.95
2023-01-17T21:09:23.500Z,44.84
2023-01-17T21:11:52.811Z,45.01
2023-01-17T21:14:21.801Z,45.06
2023-01-17T21:16:50.385Z,44.81
2023-01-17T21:19:20.334Z,44.80
2023-01-17T21:21:49.963Z,44.80
2023-01-17T21:24:19.531Z,44.91
2023-01-17T21:26:51.308Z,44.74
2023-01-17T21:29:19.934Z,45.34
2023-01-17T21:31:48.402Z,45.35
2023-01-17T21:34:16.903Z,45.54
2023-01-17T21:36:45.465Z,46.10
2023-01-17T21:39:17.461Z,46.34
2023-01-17T21:41:49.467Z,45.65
2023-01-17T21:44:20.697Z,45.53
2023-01-17T21:46:54.169Z,45.52
2023-01-17T21:49:23.993Z,45.44
2023-01-17T21:51:52.460Z,45.68
2023-01-17T21:54:43.043Z,46.27
2023-01-17T21:57:31.407Z,46.10
2023-01-17T21:59:59.906Z,46.23
2023-01-17T22:02:28.361Z,45.61
2023-01-17T22:04:56.865Z,46.18
2023-01-17T22:07:27.083Z,45.92
2023-01-17T22:09:56.862Z,45.73
2023-01-17T22:12:25.347Z,45.70
2023-01-17T22:14:54.413Z,45.58
2023-01-17T22:17:23.109Z,45.42
2023-01-17T22:19:51.582Z,45.20
2023-01-17T22:22:19.999Z,45.63
2023-01-17T22:24:48.431Z,45.90
2023-01-17T22:27:16.867Z,45.62
2023-01-17T22:29:45.706Z,46.20
2023-01-17T22:32:14.180Z,45.90
2023-01-17T22:34:42.667Z,45.92
2023-01-17T22:37:11.265Z,45.54
2023-01-17T22:39:39.741Z,45.53
2023-01-17T22:42:08.427Z,45.42
2023-01-17T22:44:36.924Z,45.37
2023-01-17T22:47:05.680Z,45.26
2023-01-17T22:49:34.097Z,45.34
2023-01-17T22:52:02.551Z,45.22
2023-01-17T22:54:31.307Z,45.22
2023-01-17T22:56:59.765Z,45.15
2023-01-17T22:59:28.251Z,45.14
2023-01-17T23:01:56.795Z,45.24
2023-01-17T23:04:25.857Z,45.13
2023-01-17T23:06:54.350Z,45.33
2023-01-17T23:09:22.843Z,45.36
2023-01-17T23:11:54.468Z,45.56
2023-01-17T23:14:24.572Z,45.44
2023-01-17T23:17:21.754Z,45.42
2023-01-17T23:19:52.956Z,45.88
2023-01-17T23:22:24.447Z,45.42
2023-01-17T23:25:02.106Z,45.49
2023-01-17T23:27:57.170Z,45.71
2023-01-17T23:30:36.044Z,45.38
2023-01-17T23:33:12.662Z,45.49
2023-01-17T23:35:43.166Z,45.26
2023-01-17T23:38:25.765Z,45.29
2023-01-17T23:41:24.479Z,45.53
2023-01-17T23:43:54.849Z,45.51
2023-01-17T23:46:25.301Z,45.54
2023-01-17T23:48:54.996Z,45.61
2023-01-17T23:51:23.527Z,45.87
2023-01-17T23:53:57.214Z,45.80
2023-01-17T23:56:25.668Z,45.49
2023-01-17T23:58:54.120Z,45.00
